Time;durP1;ratioP1;P1;durP2;ratioP2;P2;SDS_P1;SDS_P2;PMS_P1;PMS_P2;Temp;Humidity;BMP_temperature;BMP_pressure;BME280_temperature;BME280_humidity;BME280_pressure;Samples;Min_cycle;Max_cycle;Signal;HPM_P1;HPM_P2
2024/02/27 00:01:30;;;;;;;0.30;0.20;;;12.30;99.90;;;;;;5065283;28;20226;-78
2024/02/27 00:03:59;;;;;;;0.30;0.20;;;12.30;99.90;;;;;;5066994;28;20457;-77
2024/02/27 00:06:25;;;;;;;0.40;0.30;;;12.20;99.90;;;;;;5066735;28;20557;-78
2024/02/27 00:08:50;;;;;;;2.33;2.23;;;12.20;99.90;;;;;;5066558;28;20442;-77
2024/02/27 00:11:16;;;;;;;0.30;0.20;;;12.20;99.90;;;;;;5064630;28;20268;-78
2024/02/27 00:13:42;;;;;;;0.40;0.40;;;12.20;99.90;;;;;;5065105;28;20211;-77
2024/02/27 00:16:08;;;;;;;0.30;0.20;;;12.10;99.90;;;;;;5066183;28;20616;-78
2024/02/27 00:18:33;;;;;;;0.40;0.30;;;12.10;99.90;;;;;;5066407;28;20220;-77
2024/02/27 00:20:59;;;;;;;0.30;0.20;;;12.10;99.90;;;;;;5066337;28;20443;-78
2024/02/27 00:23:25;;;;;;;0.57;0.57;;;12.00;99.90;;;;;;5066234;28;20195;-78
2024/02/27 00:25:51;;;;;;;0.30;0.20;;;12.00;99.90;;;;;;5066342;28;20674;-78
2024/02/27 00:28:16;;;;;;;0.30;0.30;;;12.00;99.90;;;;;;5065978;28;20528;-78
2024/02/27 00:30:42;;;;;;;0.30;0.20;;;12.00;99.90;;;;;;5065968;28;20213;-77
2024/02/27 00:33:08;;;;;;;0.80;0.77;;;12.00;99.90;;;;;;5065858;28;20270;-78
2024/02/27 00:35:35;;;;;;;0.30;0.20;;;12.00;99.90;;;;;;5066252;28;20181;-78
2024/02/27 00:38:01;;;;;;;3.00;2.90;;;12.00;99.90;;;;;;5066012;28;20661;-78
2024/02/27 00:40:26;;;;;;;0.60;0.60;;;12.00;99.90;;;;;;5066068;28;20235;-78
2024/02/27 00:42:52;;;;;;;1.03;1.03;;;12.00;99.90;;;;;;5064463;28;20992;-77
2024/02/27 00:45:18;;;;;;;3.43;3.23;;;12.00;99.90;;;;;;5066438;28;20259;-78
2024/02/27 00:47:44;;;;;;;0.40;0.20;;;11.90;99.90;;;;;;5065818;28;20288;-78
2024/02/27 00:50:10;;;;;;;0.80;0.70;;;11.90;99.90;;;;;;5065599;28;20212;-78
2024/02/27 00:52:36;;;;;;;5.87;5.30;;;12.00;99.90;;;;;;5065827;28;20557;-78
2024/02/27 00:55:03;;;;;;;0.30;0.20;;;12.00;99.90;;;;;;5063855;28;20738;-78
2024/02/27 00:57:30;;;;;;;0.30;0.20;;;12.00;99.90;;;;;;5064962;28;20410;-78
2024/02/27 00:59:56;;;;;;;0.30;0.20;;;12.00;99.90;;;;;;5065536;28;20402;-78
2024/02/27 01:02:22;;;;;;;0.30;0.20;;;11.90;99.90;;;;;;5065558;28;20287;-78
2024/02/27 01:04:48;;;;;;;0.30;0.20;;;11.90;99.90;;;;;;5064253;28;20406;-78
2024/02/27 01:07:14;;;;;;;0.70;0.70;;;11.90;99.90;;;;;;5063838;28;20195;-78
2024/02/27 01:09:39;;;;;;;0.30;0.30;;;11.80;99.90;;;;;;5064044;28;20181;-78
2024/02/27 01:12:06;;;;;;;0.30;0.20;;;11.80;99.90;;;;;;5065184;28;20331;-78
2024/02/27 01:14:33;;;;;;;0.30;0.20;;;11.80;99.90;;;;;;5064051;28;20658;-78
2024/02/27 01:16:59;;;;;;;0.30;0.20;;;11.80;99.90;;;;;;5065305;28;20192;-77
2024/02/27 01:19:26;;;;;;;0.70;0.70;;;11.80;99.90;;;;;;5065722;28;20449;-78
2024/02/27 01:21:51;;;;;;;0.60;0.60;;;11.80;99.90;;;;;;5064075;28;20659;-78
2024/02/27 01:24:17;;;;;;;0.30;0.20;;;11.80;99.90;;;;;;5064099;28;20205;-77
2024/02/27 01:26:43;;;;;;;0.67;0.67;;;11.80;99.90;;;;;;5065254;28;20906;-78
2024/02/27 01:29:08;;;;;;;1.07;1.07;;;11.80;99.90;;;;;;5065231;28;20540;-78
2024/02/27 01:31:36;;;;;;;0.40;0.40;;;11.80;99.90;;;;;;5063601;28;20285;-78
2024/02/27 01:34:02;;;;;;;0.30;0.20;;;11.80;99.90;;;;;;5063274;28;20684;-78
2024/02/27 01:36:28;;;;;;;0.30;0.20;;;11.70;99.90;;;;;;5065597;28;20255;-78
2024/02/27 01:38:53;;;;;;;0.30;0.20;;;11.70;99.90;;;;;;5065424;28;20263;-78
2024/02/27 01:41:19;;;;;;;9.00;8.60;;;11.70;99.90;;;;;;5065099;28;20200;-77
2024/02/27 01:43:44;;;;;;;0.30;0.30;;;11.60;99.90;;;;;;5065603;28;20201;-77
2024/02/27 01:46:16;;;;;;;1.10;0.87;;;11.60;99.90;;;;;;5065135;28;20785;-78
2024/02/27 01:48:43;;;;;;;3.88;3.60;;;11.60;99.90;;;;;;5064695;28;20773;-78
2024/02/27 01:51:11;;;;;;;1.45;1.35;;;11.60;99.90;;;;;;5063237;28;20325;-78
2024/02/27 01:53:39;;;;;;;0.30;0.20;;;11.50;99.90;;;;;;5063888;28;20332;-78
2024/02/27 01:56:06;;;;;;;0.30;0.30;;;11.50;99.90;;;;;;5064979;28;20180;-78
2024/02/27 01:58:32;;;;;;;0.30;0.20;;;11.50;99.90;;;;;;5063883;28;20569;-78
2024/02/27 02:00:58;;;;;;;0.30;0.20;;;11.50;99.90;;;;;;5063811;28;20813;-78
2024/02/27 02:03:25;;;;;;;2.40;2.30;;;11.50;99.90;;;;;;5065234;28;20469;-77
2024/02/27 02:05:51;;;;;;;0.50;0.50;;;11.50;99.90;;;;;;5065237;28;20402;-78
2024/02/27 02:08:17;;;;;;;0.30;0.20;;;11.50;99.90;;;;;;5065080;28;20204;-78
2024/02/27 02:10:43;;;;;;;0.30;0.20;;;11.40;99.90;;;;;;5064625;28;20550;-78
2024/02/27 02:13:10;;;;;;;0.30;0.20;;;11.40;99.90;;;;;;5063434;28;20544;-78
2024/02/27 02:15:36;;;;;;;0.30;0.20;;;11.40;99.90;;;;;;5063502;28;20501;-77
2024/02/27 02:18:01;;;;;;;0.30;0.20;;;11.40;99.90;;;;;;5064355;28;20428;-78
2024/02/27 02:20:27;;;;;;;0.30;0.20;;;11.40;99.90;;;;;;5065200;28;20722;-78
2024/02/27 02:22:52;;;;;;;19.40;17.60;;;11.30;99.90;;;;;;5063399;28;20209;-78
2024/02/27 02:25:21;;;;;;;0.30;0.20;;;11.30;99.90;;;;;;5064739;28;20169;-78
2024/02/27 02:27:48;;;;;;;1.95;1.88;;;11.20;99.90;;;;;;5064257;28;20654;-78
2024/02/27 02:30:14;;;;;;;0.40;0.20;;;11.20;99.90;;;;;;5064477;28;20581;-78
2024/02/27 02:32:49;;;;;;;0.30;0.20;;;11.20;99.90;;;;;;5064369;28;20388;-78
2024/02/27 02:35:15;;;;;;;4.60;4.35;;;11.30;99.90;;;;;;5063394;28;20403;-78
2024/02/27 02:37:42;;;;;;;0.30;0.20;;;11.30;99.90;;;;;;5064462;28;20208;-78
2024/02/27 02:40:08;;;;;;;0.95;0.95;;;11.30;99.90;;;;;;5063281;28;20642;-78
2024/02/27 02:42:34;;;;;;;0.30;0.20;;;11.20;99.90;;;;;;5063332;28;20204;-77
2024/02/27 02:45:00;;;;;;;0.50;0.50;;;11.20;99.90;;;;;;5063331;28;20549;-78
2024/02/27 02:47:26;;;;;;;1.33;1.23;;;11.20;99.90;;;;;;5067812;28;20397;-78
2024/02/27 02:49:51;;;;;;;0.30;0.20;;;11.20;99.90;;;;;;5066347;28;20177;-78
2024/02/27 02:52:17;;;;;;;0.30;0.30;;;11.10;99.90;;;;;;5067526;28;20181;-78
2024/02/27 02:54:43;;;;;;;0.87;0.87;;;11.20;99.90;;;;;;5068266;28;20169;-78
2024/02/27 02:57:09;;;;;;;0.30;0.30;;;11.20;99.90;;;;;;5066654;28;20336;-78
2024/02/27 02:59:34;;;;;;;0.30;0.20;;;11.20;99.90;;;;;;5068306;28;20697;-77
2024/02/27 03:02:00;;;;;;;0.30;0.20;;;11.20;99.90;;;;;;5066768;28;20416;-77
2024/02/27 03:04:26;;;;;;;0.30;0.20;;;11.20;99.90;;;;;;5067861;28;20209;-78
2024/02/27 03:06:52;;;;;;;1.67;1.57;;;11.20;99.90;;;;;;5067957;28;20222;-78
2024/02/27 03:09:18;;;;;;;0.40;0.40;;;11.20;99.90;;;;;;5067564;28;20517;-77
2024/02/27 03:11:49;;;;;;;0.30;0.20;;;11.10;99.90;;;;;;5067323;28;20978;-78
2024/02/27 03:14:15;;;;;;;0.30;0.20;;;11.10;99.90;;;;;;5067998;28;20212;-77
2024/02/27 03:16:41;;;;;;;0.30;0.20;;;11.10;99.90;;;;;;5067223;28;20227;-77
2024/02/27 03:19:07;;;;;;;0.30;0.20;;;11.20;99.90;;;;;;5066258;28;20562;-78
2024/02/27 03:21:34;;;;;;;0.30;0.20;;;11.20;99.90;;;;;;5066168;28;20174;-78
2024/02/27 03:23:59;;;;;;;0.30;0.20;;;11.20;99.90;;;;;;5067398;28;20643;-78
2024/02/27 03:26:25;;;;;;;0.30;0.20;;;11.20;99.90;;;;;;5066136;28;20268;-78
2024/02/27 03:28:51;;;;;;;2.20;2.10;;;11.20;99.90;;;;;;5067525;28;20702;-78
2024/02/27 03:31:16;;;;;;;0.40;0.37;;;11.20;99.90;;;;;;5066913;28;20489;-78
2024/02/27 03:33:42;;;;;;;0.30;0.20;;;11.20;99.90;;;;;;5067293;28;20200;-77
2024/02/27 03:36:09;;;;;;;7.63;3.40;;;11.20;99.90;;;;;;5066969;28;20184;-77
2024/02/27 03:38:36;;;;;;;0.30;0.20;;;11.20;99.90;;;;;;5066007;28;20662;-78
2024/02/27 03:41:02;;;;;;;0.30;0.30;;;11.20;99.90;;;;;;5066894;28;20177;-78
2024/02/27 03:43:28;;;;;;;0.30;0.30;;;11.10;99.90;;;;;;5067041;28;20193;-78
2024/02/27 03:45:54;;;;;;;0.30;0.20;;;11.20;99.90;;;;;;5065548;28;20177;-77
2024/02/27 03:48:20;;;;;;;0.30;0.20;;;11.20;99.90;;;;;;5067330;28;20431;-78
2024/02/27 03:50:45;;;;;;;1.73;1.70;;;11.10;99.90;;;;;;5066555;28;20213;-78
2024/02/27 03:53:11;;;;;;;1.07;0.87;;;11.10;99.90;;;;;;5066532;28;20348;-78
2024/02/27 03:55:37;;;;;;;71.50;18.67;;;11.00;99.90;;;;;;5065639;28;20192;-78
2024/02/27 03:58:03;;;;;;;0.30;0.20;;;11.00;99.90;;;;;;5065893;28;20367;-77
2024/02/27 04:00:29;;;;;;;0.30;0.20;;;11.00;99.90;;;;;;5065033;28;20439;-78
2024/02/27 04:02:55;;;;;;;0.30;0.30;;;11.00;99.90;;;;;;5064633;28;20234;-78
2024/02/27 04:05:22;;;;;;;0.30;0.20;;;10.90;99.90;;;;;;5065707;28;20495;-77
2024/02/27 04:07:48;;;;;;;0.30;0.20;;;10.90;99.90;;;;;;5065098;28;20864;-78
2024/02/27 04:10:13;;;;;;;0.60;0.60;;;11.00;99.90;;;;;;5066098;28;20223;-77
2024/02/27 04:12:39;;;;;;;0.30;0.20;;;11.00;99.90;;;;;;5066102;28;20286;-77
2024/02/27 04:15:06;;;;;;;0.30;0.20;;;11.10;99.90;;;;;;5065294;28;20511;-77
2024/02/27 04:17:32;;;;;;;0.30;0.30;;;11.10;99.90;;;;;;5064879;28;20222;-77
2024/02/27 04:19:58;;;;;;;5.83;5.63;;;11.20;99.90;;;;;;5066409;28;20169;-77
2024/02/27 04:22:23;;;;;;;4.57;3.90;;;11.20;99.90;;;;;;5064795;28;20220;-77
2024/02/27 04:24:49;;;;;;;0.30;0.20;;;11.20;99.90;;;;;;5065212;28;20471;-77
2024/02/27 04:27:15;;;;;;;0.30;0.20;;;11.20;99.90;;;;;;5064501;28;20373;-77
2024/02/27 04:29:43;;;;;;;0.30;0.20;;;11.20;99.90;;;;;;5064905;28;20744;-77
2024/02/27 04:32:10;;;;;;;1.05;1.05;;;11.20;99.90;;;;;;5065712;28;20295;-77
2024/02/27 04:34:36;;;;;;;1.42;1.42;;;11.10;99.90;;;;;;5066589;28;20173;-77
2024/02/27 04:37:01;;;;;;;2.33;1.37;;;11.10;99.90;;;;;;5065712;28;20188;-78
2024/02/27 04:39:27;;;;;;;0.30;0.30;;;11.10;99.90;;;;;;5066471;28;20581;-77
2024/02/27 04:41:53;;;;;;;0.30;0.20;;;11.10;99.90;;;;;;5066240;28;20177;-77
2024/02/27 04:44:19;;;;;;;1.43;1.33;;;11.00;99.90;;;;;;5066285;28;20239;-77
2024/02/27 04:46:46;;;;;;;0.30;0.20;;;11.00;99.90;;;;;;5065691;28;20218;-77
2024/02/27 04:49:11;;;;;;;0.30;0.20;;;11.00;99.90;;;;;;5065976;28;20208;-77
2024/02/27 04:51:37;;;;;;;0.30;0.20;;;11.00;99.90;;;;;;5065401;28;20692;-77
2024/02/27 04:54:03;;;;;;;0.30;0.20;;;11.00;99.90;;;;;;5064221;28;20212;-77
2024/02/27 04:56:29;;;;;;;1.58;1.58;;;11.00;99.90;;;;;;5064723;28;20167;-77
2024/02/27 04:58:55;;;;;;;0.30;0.20;;;11.00;99.90;;;;;;5065225;28;20686;-77
2024/02/27 05:01:20;;;;;;;0.30;0.20;;;11.00;99.90;;;;;;5074943;28;20181;-77
2024/02/27 05:03:46;;;;;;;0.30;0.20;;;11.00;99.90;;;;;;5084390;28;20593;-77
2024/02/27 05:06:13;;;;;;;0.30;0.20;;;11.00;99.90;;;;;;5085378;28;20168;-77
2024/02/27 05:08:38;;;;;;;0.32;0.20;;;11.00;99.90;;;;;;5084613;28;20726;-78
2024/02/27 05:11:04;;;;;;;0.30;0.20;;;11.00;99.90;;;;;;5083079;28;20236;-77
2024/02/27 05:13:30;;;;;;;1.53;1.37;;;11.00;99.90;;;;;;5084069;28;20204;-77
2024/02/27 05:15:55;;;;;;;0.30;0.20;;;11.00;99.90;;;;;;5084405;28;20176;-77
2024/02/27 05:18:21;;;;;;;0.30;0.20;;;11.00;99.90;;;;;;5085057;28;20624;-77
2024/02/27 05:20:47;;;;;;;0.30;0.20;;;11.00;99.90;;;;;;5085591;28;20172;-77
2024/02/27 05:23:14;;;;;;;0.30;0.20;;;11.00;99.90;;;;;;5084678;28;20810;-77
2024/02/27 05:25:41;;;;;;;0.30;0.30;;;11.00;99.90;;;;;;5084788;28;20180;-78
2024/02/27 05:28:06;;;;;;;0.75;0.75;;;11.00;99.90;;;;;;5082065;28;20535;-77
2024/02/27 05:30:32;;;;;;;0.30;0.20;;;11.00;99.90;;;;;;5080389;28;20226;-77
2024/02/27 05:32:58;;;;;;;0.30;0.20;;;11.00;99.90;;;;;;5078518;28;20200;-77
2024/02/27 05:35:23;;;;;;;0.30;0.20;;;11.00;99.90;;;;;;5072631;28;20320;-77
2024/02/27 05:37:49;;;;;;;0.30;0.20;;;10.90;99.90;;;;;;5072690;28;20192;-78
2024/02/27 05:40:15;;;;;;;0.30;0.20;;;10.90;99.90;;;;;;5073616;28;20165;-77
2024/02/27 05:42:41;;;;;;;1.10;1.10;;;11.00;99.90;;;;;;5072049;28;20549;-78
2024/02/27 05:45:07;;;;;;;0.30;0.20;;;11.00;99.90;;;;;;5073389;28;20173;-77
2024/02/27 05:47:33;;;;;;;1.05;1.05;;;11.10;99.90;;;;;;5063261;28;20586;-77
2024/02/27 05:49:59;;;;;;;0.30;0.20;;;11.10;99.90;;;;;;5063514;28;20180;-77
2024/02/27 05:52:25;;;;;;;0.30;0.20;;;11.20;99.90;;;;;;5071612;28;20414;-77
2024/02/27 05:54:50;;;;;;;0.30;0.20;;;11.20;99.90;;;;;;5062972;28;20517;-77
2024/02/27 05:57:16;;;;;;;0.30;0.20;;;11.20;99.90;;;;;;5063195;28;20650;-77
2024/02/27 05:59:42;;;;;;;0.30;0.20;;;11.20;99.90;;;;;;5063139;28;20273;-77
2024/02/27 06:02:08;;;;;;;0.30;0.20;;;11.10;99.90;;;;;;5061451;28;20180;-77
2024/02/27 06:04:34;;;;;;;0.30;0.20;;;11.20;99.90;;;;;;5061907;28;20205;-77
2024/02/27 06:06:59;;;;;;;0.30;0.20;;;11.20;99.90;;;;;;5062805;28;20562;-77
2024/02/27 06:09:25;;;;;;;0.30;0.20;;;11.20;99.90;;;;;;5064766;28;20453;-78
2024/02/27 06:11:51;;;;;;;0.40;0.30;;;11.20;99.90;;;;;;5082941;28;20806;-77
2024/02/27 06:14:16;;;;;;;0.30;0.20;;;11.30;99.90;;;;;;5082007;28;20678;-77
2024/02/27 06:16:42;;;;;;;0.60;0.57;;;11.30;99.90;;;;;;5082955;28;20188;-77
2024/02/27 06:19:09;;;;;;;0.30;0.20;;;11.40;99.90;;;;;;5082236;28;20215;-77
2024/02/27 06:24:19;;;;;;;0.95;0.95;;;11.40;99.90;;;;;;5088190;28;20215;-77
2024/02/27 06:26:45;;;;;;;0.30;0.20;;;11.40;99.90;;;;;;5087674;28;20654;-77
2024/02/27 06:29:11;;;;;;;0.30;0.20;;;11.50;99.90;;;;;;5079698;28;20617;-77
2024/02/27 06:31:36;;;;;;;0.30;0.30;;;11.50;99.90;;;;;;5078844;28;20490;-78
2024/02/27 06:34:03;;;;;;;0.30;0.20;;;11.60;99.90;;;;;;5087096;28;20216;-78
2024/02/27 06:36:30;;;;;;;0.93;0.85;;;11.60;99.90;;;;;;5086609;28;20354;-77
2024/02/27 06:38:56;;;;;;;0.30;0.20;;;11.60;99.90;;;;;;5084601;28;20212;-78
2024/02/27 06:41:23;;;;;;;0.40;0.40;;;11.60;99.90;;;;;;5084967;28;20436;-77
2024/02/27 06:43:49;;;;;;;6.03;2.90;;;11.70;99.90;;;;;;5085218;28;20445;-77
2024/02/27 06:46:15;;;;;;;0.40;0.40;;;11.70;99.90;;;;;;5086305;28;20265;-77
2024/02/27 06:48:41;;;;;;;0.40;0.40;;;11.80;99.90;;;;;;5084197;28;20457;-77
2024/02/27 06:51:08;;;;;;;0.30;0.20;;;11.80;99.90;;;;;;5070301;28;20548;-77
2024/02/27 06:53:35;;;;;;;0.30;0.20;;;11.80;99.90;;;;;;5063214;28;20196;-77
2024/02/27 06:56:01;;;;;;;0.30;0.20;;;11.80;99.90;;;;;;5070915;28;20261;-77
2024/02/27 06:58:27;;;;;;;0.30;0.20;;;11.80;99.90;;;;;;5081759;28;20212;-77
2024/02/27 07:00:53;;;;;;;0.30;0.20;;;11.90;99.90;;;;;;5083257;28;20263;-77
2024/02/27 07:03:19;;;;;;;0.30;0.20;;;11.90;99.90;;;;;;5083965;28;20444;-80
2024/02/27 07:05:44;;;;;;;0.30;0.20;;;11.90;99.90;;;;;;5071345;28;20700;-78
2024/02/27 07:08:10;;;;;;;1.57;1.47;;;12.00;99.90;;;;;;5072022;28;20812;-78
2024/02/27 07:10:39;;;;;;;0.30;0.20;;;12.10;99.90;;;;;;5082706;28;20216;-78
2024/02/27 07:13:06;;;;;;;0.90;0.90;;;12.10;99.90;;;;;;5081833;28;20193;-78
2024/02/27 07:15:32;;;;;;;1.33;1.27;;;12.20;99.90;;;;;;5084268;28;20564;-78
2024/02/27 07:17:58;;;;;;;0.30;0.30;;;12.30;99.90;;;;;;5083969;28;20283;-78
2024/02/27 07:20:25;;;;;;;0.40;0.20;;;12.40;99.90;;;;;;5083270;28;20439;-78
2024/02/27 07:22:51;;;;;;;2.30;2.20;;;12.50;99.90;;;;;;5083260;28;20235;-78
2024/02/27 07:25:17;;;;;;;0.30;0.20;;;12.60;99.90;;;;;;5075730;28;20919;-78
2024/02/27 07:27:45;;;;;;;4.10;3.90;;;12.70;99.90;;;;;;5080606;28;20694;-78
2024/02/27 07:30:12;;;;;;;0.30;0.20;;;12.70;99.90;;;;;;5082949;28;20200;-78
2024/02/27 07:32:37;;;;;;;0.30;0.20;;;12.70;99.90;;;;;;5082774;28;20480;-78
2024/02/27 07:35:03;;;;;;;0.30;0.20;;;12.80;99.90;;;;;;5084397;28;20435;-78
2024/02/27 07:37:29;;;;;;;0.30;0.20;;;12.80;99.90;;;;;;5082358;28;20176;-80
2024/02/27 07:39:54;;;;;;;0.30;0.20;;;12.90;99.90;;;;;;5079823;28;20925;-79
2024/02/27 07:42:20;;;;;;;0.30;0.20;;;12.90;99.90;;;;;;5083483;28;20514;-79
2024/02/27 07:44:46;;;;;;;0.73;0.73;;;13.10;99.90;;;;;;5083293;28;20480;-80
2024/02/27 07:47:12;;;;;;;0.30;0.27;;;13.20;99.90;;;;;;5083220;28;20172;-80
2024/02/27 07:49:45;;;;;;;0.37;0.37;;;13.30;99.90;;;;;;5081628;28;20428;-79
2024/02/27 07:52:11;;;;;;;0.87;0.87;;;13.40;99.90;;;;;;5082503;28;20567;-79
2024/02/27 07:54:38;;;;;;;1.60;1.60;;;13.60;99.90;;;;;;5082205;28;20440;-79
2024/02/27 07:57:04;;;;;;;0.30;0.20;;;13.60;99.90;;;;;;5073885;28;20414;-78
2024/02/27 07:59:30;;;;;;;0.30;0.20;;;13.60;99.90;;;;;;5076239;28;20746;-79
2024/02/27 08:01:57;;;;;;;0.30;0.20;;;13.70;99.90;;;;;;5079995;28;20396;-79
2024/02/27 08:04:23;;;;;;;0.30;0.30;;;13.80;99.90;;;;;;5076347;28;20510;-79
2024/02/27 08:06:49;;;;;;;1.70;1.60;;;13.90;99.90;;;;;;5070885;28;20781;-79
2024/02/27 08:09:18;;;;;;;1.80;1.70;;;14.10;99.90;;;;;;5071109;28;20528;-79
2024/02/27 08:11:44;;;;;;;0.30;0.20;;;14.30;99.90;;;;;;5071054;28;20286;-79
2024/02/27 08:14:10;;;;;;;0.30;0.20;;;14.60;99.90;;;;;;5077999;28;21263;-79
2024/02/27 08:16:36;;;;;;;0.30;0.30;;;14.90;99.90;;;;;;5081897;28;20650;-80
2024/02/27 08:19:05;;;;;;;2.20;2.00;;;15.20;99.90;;;;;;5077110;28;20208;-79
2024/02/27 08:21:32;;;;;;;0.40;0.33;;;15.50;99.90;;;;;;5080099;28;20418;-80
2024/02/27 08:23:58;;;;;;;0.73;0.73;;;16.00;99.90;;;;;;5079722;28;20440;-80
2024/02/27 08:26:24;;;;;;;0.83;0.83;;;16.50;99.90;;;;;;5078551;28;20432;-79
2024/02/27 08:28:49;;;;;;;0.40;0.30;;;17.00;99.90;;;;;;5075416;28;20197;-79
2024/02/27 08:31:15;;;;;;;0.83;0.60;;;17.50;99.90;;;;;;5075900;28;20453;-80
2024/02/27 08:33:41;;;;;;;0.57;0.53;;;17.80;99.90;;;;;;5076693;28;20396;-81
2024/02/27 08:36:07;;;;;;;0.50;0.50;;;18.30;99.90;;;;;;5075478;28;20456;-80
2024/02/27 08:38:33;;;;;;;0.40;0.30;;;18.70;99.90;;;;;;5076570;28;20785;-79
2024/02/27 08:41:00;;;;;;;0.40;0.30;;;19.00;99.90;;;;;;5072981;28;20326;-80
2024/02/27 08:43:26;;;;;;;0.40;0.30;;;19.10;99.90;;;;;;5070889;28;20224;-80
2024/02/27 08:45:52;;;;;;;0.40;0.30;;;19.40;99.90;;;;;;5074727;28;20410;-79
2024/02/27 08:48:18;;;;;;;0.40;0.30;;;19.80;99.90;;;;;;5072142;28;20208;-79
2024/02/27 08:50:47;;;;;;;0.30;0.20;;;19.80;99.90;;;;;;5075052;28;20786;-79
2024/02/27 08:53:13;;;;;;;0.30;0.20;;;19.80;99.90;;;;;;5073327;28;20461;-80
2024/02/27 08:55:39;;;;;;;0.70;0.70;;;19.90;99.90;;;;;;5073792;28;20772;-79
2024/02/27 08:58:05;;;;;;;3.10;3.00;;;20.00;99.90;;;;;;5077680;28;20731;-80
2024/02/27 09:00:31;;;;;;;0.83;0.83;;;20.10;99.90;;;;;;5075768;28;20417;-79
2024/02/27 09:02:58;;;;;;;0.30;0.20;;;20.20;99.90;;;;;;5075540;28;20441;-79
2024/02/27 09:05:24;;;;;;;0.30;0.20;;;20.10;99.90;;;;;;5073910;28;20872;-80
2024/02/27 09:07:50;;;;;;;1.43;1.33;;;20.10;99.90;;;;;;5076805;28;21004;-79
2024/02/27 09:10:17;;;;;;;0.30;0.20;;;20.20;99.90;;;;;;5078756;28;20498;-78
2024/02/27 09:12:44;;;;;;;0.40;0.20;;;20.40;99.90;;;;;;5071746;28;20480;-78
2024/02/27 09:15:10;;;;;;;0.30;0.20;;;20.60;99.90;;;;;;5073518;28;20476;-78
2024/02/27 09:17:37;;;;;;;0.40;0.37;;;20.70;99.80;;;;;;5072122;28;20271;-78
2024/02/27 09:20:03;;;;;;;0.87;0.87;;;20.70;99.40;;;;;;5075707;28;20427;-78
2024/02/27 09:22:31;;;;;;;0.30;0.20;;;20.80;99.10;;;;;;5062219;28;20797;-78
2024/02/27 09:24:57;;;;;;;0.40;0.30;;;20.80;99.10;;;;;;5075665;28;20447;-78
2024/02/27 09:27:23;;;;;;;0.30;0.30;;;21.00;98.80;;;;;;5081946;28;20409;-78
2024/02/27 09:29:49;;;;;;;10.80;1.70;;;21.00;98.60;;;;;;5081149;28;20492;-78
2024/02/27 09:32:16;;;;;;;0.30;0.20;;;20.60;98.70;;;;;;5080108;28;20482;-78
2024/02/27 09:34:43;;;;;;;1.07;0.70;;;20.40;98.80;;;;;;5060834;28;20425;-78
2024/02/27 09:37:09;;;;;;;0.70;0.70;;;20.20;99.10;;;;;;5079551;28;20409;-78
2024/02/27 09:39:34;;;;;;;0.43;0.43;;;20.10;98.80;;;;;;5071981;28;20985;-79
2024/02/27 09:42:12;;;;;;;0.30;0.20;;;20.10;99.80;;;;;;5076527;28;20796;-78
2024/02/27 09:44:39;;;;;;;0.30;0.20;;;20.10;98.80;;;;;;5064136;28;20192;-77
2024/02/27 09:47:10;;;;;;;0.37;0.37;;;19.90;98.80;;;;;;5076868;28;20420;-78
2024/02/27 09:49:38;;;;;;;0.30;0.20;;;19.60;99.10;;;;;;5065886;28;20425;-77
2024/02/27 09:52:06;;;;;;;0.30;0.30;;;19.60;99.00;;;;;;5076817;28;20568;-77
2024/02/27 09:54:32;;;;;;;0.30;0.30;;;19.60;99.50;;;;;;5075358;28;20452;-77
2024/02/27 09:56:59;;;;;;;0.30;0.30;;;19.90;99.30;;;;;;5082060;28;20536;-78
2024/02/27 09:59:24;;;;;;;4.47;4.10;;;20.10;98.60;;;;;;5084642;28;20444;-78
2024/02/27 10:01:54;;;;;;;0.50;0.50;;;20.30;98.60;;;;;;5081516;28;20424;-77
2024/02/27 10:04:24;;;;;;;0.60;0.60;;;20.40;98.10;;;;;;5081772;28;20232;-77
2024/02/27 10:06:51;;;;;;;0.40;0.30;;;20.60;97.90;;;;;;5080193;28;20420;-77
2024/02/27 10:09:20;;;;;;;0.30;0.20;;;20.60;97.50;;;;;;5079456;28;20452;-79
2024/02/27 10:11:47;;;;;;;0.40;0.40;;;20.60;97.60;;;;;;5075187;28;20476;-78
2024/02/27 10:14:21;;;;;;;0.30;0.20;;;20.60;97.20;;;;;;5077427;28;20834;-78
2024/02/27 10:16:47;;;;;;;0.40;0.40;;;20.40;97.10;;;;;;5079659;28;20407;-78
2024/02/27 10:19:13;;;;;;;0.43;0.43;;;20.00;97.30;;;;;;5078160;28;20444;-78
2024/02/27 10:21:39;;;;;;;0.30;0.20;;;19.50;97.70;;;;;;5080536;28;20880;-78
2024/02/27 10:24:05;;;;;;;0.40;0.40;;;19.30;98.00;;;;;;5084201;28;20467;-78
2024/02/27 10:26:30;;;;;;;0.30;0.30;;;19.10;98.40;;;;;;5083211;28;20428;-77
2024/02/27 10:28:56;;;;;;;2.30;2.20;;;19.00;98.50;;;;;;5074878;28;20509;-77
2024/02/27 10:31:22;;;;;;;0.30;0.20;;;19.00;98.60;;;;;;5080492;28;20204;-77
2024/02/27 10:33:51;;;;;;;0.63;0.63;;;18.90;98.70;;;;;;5078505;28;20371;-77
2024/02/27 10:36:17;;;;;;;0.43;0.43;;;18.90;99.10;;;;;;5076224;28;20180;-77
2024/02/27 10:38:44;;;;;;;0.47;0.47;;;19.00;98.70;;;;;;5079679;28;20827;-77
2024/02/27 10:41:10;;;;;;;0.60;0.60;;;18.90;98.50;;;;;;5078646;28;20431;-77
2024/02/27 10:43:36;;;;;;;0.40;0.40;;;18.80;98.80;;;;;;5078742;28;20965;-77
2024/02/27 10:46:02;;;;;;;0.50;0.50;;;18.80;98.50;;;;;;5075240;28;20180;-77
2024/02/27 10:48:29;;;;;;;0.30;0.20;;;18.60;98.60;;;;;;5079618;28;20212;-77
2024/02/27 10:50:55;;;;;;;0.30;0.20;;;18.50;99.00;;;;;;5073291;28;21063;-77
2024/02/27 10:53:24;;;;;;;0.83;0.83;;;18.40;99.20;;;;;;5077145;28;20459;-78
2024/02/27 10:55:53;;;;;;;0.30;0.20;;;18.40;99.20;;;;;;5078029;28;20508;-77
2024/02/27 10:58:20;;;;;;;0.30;0.20;;;18.50;99.10;;;;;;5080262;28;20546;-77
2024/02/27 11:00:46;;;;;;;0.67;0.67;;;18.50;99.00;;;;;;5079391;28;20420;-78
2024/02/27 11:03:13;;;;;;;0.47;0.47;;;18.50;99.00;;;;;;5076400;28;20999;-77
2024/02/27 11:05:43;;;;;;;0.40;0.40;;;18.50;99.10;;;;;;5070095;28;20635;-77
2024/02/27 11:08:10;;;;;;;0.50;0.40;;;18.60;99.00;;;;;;5073586;28;20455;-78
2024/02/27 11:10:38;;;;;;;0.30;0.20;;;18.50;99.20;;;;;;5073886;28;20555;-77
2024/02/27 11:13:06;;;;;;;0.63;0.63;;;18.50;99.10;;;;;;5073372;28;20991;-77
2024/02/27 11:15:33;;;;;;;0.30;0.30;;;18.50;99.20;;;;;;5071520;28;20940;-77
2024/02/27 11:18:01;;;;;;;3.03;1.60;;;18.70;99.50;;;;;;5073920;28;20820;-77
2024/02/27 11:20:29;;;;;;;2.30;2.20;;;18.70;99.20;;;;;;5080426;28;20433;-78
2024/02/27 11:22:56;;;;;;;0.30;0.20;;;18.80;99.50;;;;;;5072723;28;20443;-78
2024/02/27 11:25:22;;;;;;;1.03;1.03;;;18.90;98.90;;;;;;5075531;28;20846;-78
2024/02/27 11:27:49;;;;;;;0.30;0.20;;;19.00;98.70;;;;;;5071682;28;20497;-78
2024/02/27 11:30:19;;;;;;;0.30;0.20;;;19.10;98.80;;;;;;5078619;28;20485;-78
2024/02/27 11:32:45;;;;;;;0.87;0.87;;;19.10;98.30;;;;;;5075376;28;21083;-78
2024/02/27 11:35:11;;;;;;;4.77;1.13;;;19.10;98.20;;;;;;5078470;28;20518;-78
2024/02/27 11:37:37;;;;;;;0.30;0.20;;;19.00;98.20;;;;;;5066529;28;20292;-78
2024/02/27 11:40:04;;;;;;;0.30;0.20;;;18.90;98.20;;;;;;5077759;28;20180;-78
2024/02/27 11:42:35;;;;;;;1.37;1.37;;;18.90;98.50;;;;;;5079935;28;20536;-78
2024/02/27 11:45:11;;;;;;;0.30;0.20;;;18.90;98.70;;;;;;5076375;28;20706;-78
2024/02/27 11:47:42;;;;;;;0.30;0.20;;;18.90;98.30;;;;;;5070459;28;20957;-78
2024/02/27 11:50:12;;;;;;;0.30;0.20;;;19.00;98.30;;;;;;5075399;28;20619;-78
2024/02/27 11:52:42;;;;;;;0.87;0.87;;;19.00;98.20;;;;;;5075935;28;20525;-78
2024/02/27 11:55:09;;;;;;;0.30;0.20;;;19.00;98.50;;;;;;5071336;28;21109;-79
2024/02/27 11:57:36;;;;;;;0.30;0.20;;;19.10;97.90;;;;;;5065919;28;20671;-78
2024/02/27 12:00:11;;;;;;;0.30;0.20;;;19.10;98.30;;;;;;5073827;28;20555;-78
2024/02/27 12:02:37;;;;;;;0.30;0.20;;;19.20;98.00;;;;;;5077012;28;20817;-79
2024/02/27 12:05:06;;;;;;;1.60;1.50;;;19.20;97.80;;;;;;5070511;28;20424;-79
2024/02/27 12:07:33;;;;;;;0.50;0.50;;;19.20;97.70;;;;;;5068863;28;20427;-78
2024/02/27 12:10:11;;;;;;;0.43;0.40;;;19.10;97.90;;;;;;5077263;28;20417;-78
2024/02/27 12:12:38;;;;;;;0.80;0.80;;;19.10;97.90;;;;;;5077086;28;20877;-78
2024/02/27 12:15:04;;;;;;;0.30;0.30;;;19.20;97.80;;;;;;5079909;28;20444;-78
2024/02/27 12:17:31;;;;;;;0.60;0.60;;;19.20;97.50;;;;;;5081106;28;20508;-78
2024/02/27 12:19:58;;;;;;;0.30;0.20;;;19.20;97.30;;;;;;5074270;28;20408;-78
2024/02/27 12:22:24;;;;;;;0.30;0.20;;;19.20;97.30;;;;;;5073727;28;20441;-78
2024/02/27 12:24:55;;;;;;;0.30;0.20;;;19.20;97.40;;;;;;5071957;28;20796;-79
2024/02/27 12:27:21;;;;;;;10.00;9.20;;;19.10;97.50;;;;;;5070545;28;20516;-78
2024/02/27 12:29:47;;;;;;;0.30;0.30;;;19.10;97.30;;;;;;5069113;28;20507;-78
2024/02/27 12:32:12;;;;;;;0.30;0.30;;;19.20;97.50;;;;;;5071279;28;20719;-78
2024/02/27 12:34:39;;;;;;;0.30;0.20;;;19.20;97.40;;;;;;5074575;28;20210;-78
2024/02/27 12:37:05;;;;;;;0.30;0.20;;;19.30;97.30;;;;;;5078842;28;20420;-78
2024/02/27 12:39:31;;;;;;;0.90;0.40;;;19.30;97.20;;;;;;5077014;28;21086;-79
2024/02/27 12:41:57;;;;;;;0.30;0.20;;;19.40;97.10;;;;;;5077212;28;20180;-78
2024/02/27 12:44:26;;;;;;;0.30;0.20;;;19.40;97.00;;;;;;5069128;28;20435;-78